x

North Equatorial Two - 890 Nm East Of Martinique (41041) Wave Buoy

6:50pm - Thu 24th Apr 2014 All times are UTC.

  • Sig Wave height 7.2ft
  • Swell Direction
  • Peak Period 16s
  • Average Period 7s
  • Wind
    16mph, 18mph gusts
  • Sea Temp 78°f
  • Air Temp 77°f
  • Sea Pressure 1015.5mb

More Historic Weather Station data

Upgrade to MSW Pro to gain access to the past 30 days of data for over 8000 Wavebouys and Weather Stations around the globe.

Join Pro

Comparision Forecast

View Surf forecast
   
Thu 04/24 6:50pm 7ft 16s 7s 16 18 mph 1015.5mb 78f 77f
5:50pm 7ft 16s 7s 11 13 mph 1015.7mb 78f 77f
4:50pm 7ft 8s 7s 16 18 mph 1016.1mb 78f 77f
3:50pm 7ft 8s 6s 16 18 mph 1016.8mb 78f 77f
2:50pm 8ft 8s 6s 18 20 mph 1017.5mb 78f 77f
1:50pm 7ft 7s 6s 18 20 mph 1017.9mb 78f 77f
12:50pm 7.5ft 7s 6s 16 20 mph 1018.3mb 78f 77f
11:50am 7ft 8s 6s 18 20 mph 1018.2mb 77f 77f
10:50am 7.5ft 7s 6s 18 22 mph 1017.8mb 77f 76f
9:50am 7ft 8s 6s 20 25 mph 1016.7mb 77f 77f
8:50am 7ft 8s 6s 20 27 mph 1016.1mb 77f 76f
7:50am 7ft 8s 6s 20 22 mph 1015.5mb 77f 76f
6:50am 7ft 7s 6s 18 22 mph 1015.4mb 77f 75f
5:50am 7ft 7s 6s 22 27 mph 1015.4mb 77f 76f
4:50am 7ft 8s 6s 22 27 mph 1016mb 78f 76f
3:50am 7ft 8s 6s 22 27 mph 1016.5mb 77f 76f
2:50am 7.5ft 8s 6s 20 25 mph 1017.1mb 78f 77f
1:50am 7ft 8s 6s 20 25 mph 1017.5mb 78f 77f
12:50am 7ft 8s 6s 22 27 mph 1017mb 78f 77f
Wed 04/23 11:50pm 6.5ft 8s 6s 22 27 mph 1016.8mb 78f 77f
10:50pm 7ft 7s 6s 20 27 mph 1016.5mb 78f 77f
9:50pm 7ft 7s 6s 18 22 mph 1016mb 78f 77f
8:50pm 6.5ft 8s 6s 18 20 mph 1015.5mb 78f 77f
7:50pm 6.5ft 7s 6s 18 22 mph 1015mb 78f 77f
6:50pm 7ft 7s 6s 20 25 mph 1015mb 78f 77f
5:50pm 7ft 6s 6s 18 22 mph 1015.2mb 78f 77f
4:50pm 7ft 7s 6s 18 20 mph 1015.7mb 78f 77f
3:50pm 7ft 8s 6s 20 25 mph 1016.4mb 78f 77f
2:50pm 7ft 7s 6s 22 27 mph 1017.1mb 78f 77f
1:50pm 7ft 8s 6s 20 25 mph 1017.7mb 78f 77f
12:50pm 7ft 7s 6s 18 22 mph 1018.1mb 77f 78f
11:50am 7.5ft 7s 6s 20 25 mph 1018.3mb 77f 77f
10:50am 7ft 7s 6s 22 27 mph 1018mb 77f 77f
9:50am 7ft 7s 6s 22 25 mph 1017.2mb 77f 77f
8:50am 7ft 6s 6s 20 25 mph 1016.6mb 77f 76f
7:50am 7ft 8s 6s 20 25 mph 1016.1mb 77f 77f
6:50am 7ft 7s 6s 18 22 mph 1015.8mb 77f 76f
5:50am 7ft 10s 6s 22 27 mph 1015.7mb 77f 76f
4:50am 7ft 9s 6s 22 29 mph 1016.1mb 78f 76f
3:50am 6ft 8s 6s 20 22 mph 1016.8mb 78f 77f
2:50am 6ft 7s 6s 20 25 mph 1017.6mb 78f 76f
1:50am 6ft 8s 6s 20 25 mph 1017.7mb 78f 76f
12:50am 6ft 6s 6s 20 25 mph 1017.6mb 78f 77f
Tue 04/22 11:50pm 6ft 8s 6s 18 22 mph 1017mb 78f 77f
9:50pm 6ft 8s 6s 20 22 mph 1016mb 78f 77f
8:50pm 6.5ft 8s 6s 18 20 mph 1015.7mb 78f 77f
7:50pm 6ft 7s 6s 16 20 mph 1015.2mb 78f 77f
6:50pm 6ft 8s 6s 16 20 mph 1015.2mb 78f 77f
5:50pm 6ft 8s 6s 18 20 mph 1015.1mb 78f 77f
4:50pm 6.5ft 8s 6s 16 20 mph 1015.8mb 78f 77f
3:50pm 6.5ft 7s 6s 18 20 mph 1016.3mb 78f 77f
2:50pm 7ft 8s 6s 18 22 mph 1017.2mb 78f 77f
1:50pm 7ft 8s 6s 18 22 mph 1017.6mb 78f 76f
12:50pm 7ft 9s 6s 18 22 mph 1017.6mb 77f 76f
11:50am 6.5ft 8s 6s 20 22 mph 1017.3mb 77f 76f
10:50am 7ft 9s 6s 16 20 mph 1017.1mb 77f 76f
9:50am 7ft 8s 6s 18 20 mph 1016.5mb 77f 76f
8:50am 6.5ft 7s 6s 20 22 mph 1016mb 77f 76f
7:50am 6ft 7s 6s 20 25 mph 1015.6mb 77f 76f
6:50am 7ft 8s 6s 18 22 mph 1015.3mb 77f 76f
5:50am 6.5ft 8s 6s 18 20 mph 1014.9mb 77f 76f
4:50am 7ft 8s 6s 18 22 mph 1015.3mb 77f 76f
3:50am 7ft 8s 6s 18 22 mph 1015.7mb 77f 76f
2:50am 7ft 8s 6s 18 22 mph 1016.2mb 77f 76f
1:50am 7ft 8s 6s 20 22 mph 1016.6mb 78f 76f
12:50am 7ft 8s 6s 18 22 mph 1016.7mb 78f 76f
Mon 04/21 11:50pm 7ft 8s 6s 18 22 mph 1016.4mb 78f 76f
10:50pm 7ft 8s 6s 18 25 mph 1016mb 78f 76f
9:50pm 7ft 7s 6s 20 25 mph 1015.6mb 78f 76f
8:50pm 7ft 8s 6s 18 22 mph 1015.1mb 78f 76f
7:50pm 6.5ft 8s 6s 18 25 mph 1014.7mb 78f 76f
6:50pm 7ft 8s 6s 20 22 mph 1014.8mb 78f 76f
5:50pm 7ft 8s 6s 20 22 mph 1015.3mb 78f 76f
4:50pm 7ft 8s 6s 18 22 mph 1015.8mb 78f 76f
3:50pm 8ft 8s 6s 20 22 mph 1016.1mb 78f 76f
2:50pm 7.5ft 8s 6s 20 22 mph 1016.9mb 78f 76f
1:50pm 7ft 8s 6s 20 22 mph 1017.4mb 78f 77f
12:50pm 7ft 8s 6s 18 22 mph 1017.5mb 77f 77f
11:50am 7ft 8s 6s 18 22 mph 1017.5mb 77f 76f
10:50am 7.5ft 7s 6s 16 20 mph 1017.4mb 77f 76f
9:50am 7ft 8s 6s 18 22 mph 1016.9mb 77f 76f
8:50am 7ft 8s 6s 20 25 mph 1016.6mb 77f 76f
7:50am 8ft 8s 6s 18 20 mph 1016.3mb 77f 76f
6:50am 7ft 8s 6s 20 25 mph 1015.8mb 77f 76f
5:50am 8ft 7s 6s 20 22 mph 1016mb 77f 76f
4:50am 8ft 8s 6s 20 25 mph 1016.5mb 77f 76f
3:50am 8ft 8s 6s 20 25 mph 1016.9mb 77f 76f
2:50am 7.5ft 7s 6s 20 25 mph 1017.7mb 77f 76f
1:50am 7.5ft 8s 6s 20 25 mph 1018.2mb 77f 76f
12:50am 7.5ft 9s 6s 22 27 mph 1018.1mb 77f 76f
Sun 04/20 11:50pm 8ft 8s 6s 22 25 mph 1018.2mb 77f 76f
10:50pm 7ft 8s 6s 22 27 mph 1017.9mb 77f 76f
9:50pm 7.5ft 7s 6s 22 27 mph 1017.6mb 77f 76f
8:50pm 7.5ft 8s 6s 20 25 mph 1017.5mb 77f 76f
7:50pm 8ft 8s 6s 22 25 mph 1017mb 77f 76f